createdAt,value
2023-02-14T00:00:29.441Z,98029.91
2023-02-14T00:02:56.460Z,98016.50
2023-02-14T00:05:23.425Z,98011.81
2023-02-14T00:07:50.642Z,98030.66
2023-02-14T00:10:17.926Z,98005.78
2023-02-14T00:12:44.883Z,98006.81
2023-02-14T00:15:11.849Z,97985.22
2023-02-14T00:17:38.854Z,98002.22
2023-02-14T00:20:06.519Z,98001.31
2023-02-14T00:22:33.511Z,98007.41
2023-02-14T00:25:00.868Z,97981.63
2023-02-14T00:27:27.815Z,97966.75
2023-02-14T00:29:54.893Z,97967.81
2023-02-14T00:32:21.982Z,97967.72
2023-02-14T00:34:48.901Z,97958.19
2023-02-14T00:37:15.892Z,97950.59
2023-02-14T00:39:42.754Z,97946.22
2023-02-14T00:42:09.770Z,97958.28
2023-02-14T00:44:37.548Z,97947.59
2023-02-14T00:47:05.210Z,97933.94
2023-02-14T00:49:32.407Z,97907.47
2023-02-14T00:51:59.496Z,97923.81
2023-02-14T00:54:28.065Z,97922.31
2023-02-14T00:56:55.059Z,97919.03
2023-02-14T00:59:21.969Z,97908.50
2023-02-14T01:01:48.915Z,97915.28
2023-02-14T01:04:15.897Z,97919.44
2023-02-14T01:06:42.913Z,97928.34
2023-02-14T01:09:09.894Z,97903.41
2023-02-14T01:11:36.840Z,97903.56
2023-02-14T01:14:03.833Z,97894.53
2023-02-14T01:16:31.024Z,97886.25
2023-02-14T01:18:59.322Z,97882.28
2023-02-14T01:21:29.529Z,97857.31
2023-02-14T01:23:59.451Z,97871.69
2023-02-14T01:26:27.789Z,97870.56
2023-02-14T01:28:55.235Z,97840.28
2023-02-14T01:31:26.947Z,97877.91
2023-02-14T01:33:57.063Z,97855.78
2023-02-14T01:36:33.548Z,97847.06
2023-02-14T01:39:04.754Z,97839.50
2023-02-14T01:41:34.656Z,97841.41
2023-02-14T01:44:26.099Z,97852.84
2023-02-14T01:46:53.354Z,97820.31
2023-02-14T01:49:35.143Z,97829.47
2023-02-14T01:52:08.396Z,97833.09
2023-02-14T01:54:41.315Z,97808.97
2023-02-14T01:57:11.975Z,97824.94
2023-02-14T01:59:45.960Z,97823.81
2023-02-14T02:02:13.203Z,97832.59
2023-02-14T02:04:45.796Z,97812.81
2023-02-14T02:07:20.027Z,97813.34
2023-02-14T02:09:57.356Z,97809.44
2023-02-14T02:12:24.445Z,97794.53
2023-02-14T02:14:54.981Z,97776.31
2023-02-14T02:17:59.408Z,97791.41
2023-02-14T02:20:38.425Z,97776.91
2023-02-14T02:23:17.652Z,97782.25
2023-02-14T02:26:08.844Z,97791.22
2023-02-14T02:29:20.698Z,97778.09
2023-02-14T02:31:53.540Z,97782.09
2023-02-14T02:34:57.402Z,97763.38
2023-02-14T02:37:37.540Z,97772.41
2023-02-14T02:40:37.674Z,97783.25
2023-02-14T02:43:41.545Z,97763.16
2023-02-14T02:46:20.947Z,97770.63
2023-02-14T02:49:04.732Z,97750.63
2023-02-14T02:51:54.760Z,97751.75
2023-02-14T02:54:37.626Z,97735.13
2023-02-14T02:57:12.655Z,97743.31
2023-02-14T02:59:44.167Z,97750.56
2023-02-14T03:02:20.104Z,97745.09
2023-02-14T03:04:55.426Z,97729.06
2023-02-14T03:07:28.469Z,97738.31
2023-02-14T03:10:01.184Z,97719.00
2023-02-14T03:12:35.802Z,97744.56
2023-02-14T03:15:27.375Z,97745.16
2023-02-14T03:18:25.005Z,97725.16
2023-02-14T03:21:11.076Z,97729.69
2023-02-14T03:23:49.775Z,97745.72
2023-02-14T03:26:39.916Z,97722.72
2023-02-14T03:29:36.281Z,97729.63
2023-02-14T03:32:25.716Z,97717.16
2023-02-14T03:35:00.809Z,97718.41
2023-02-14T03:37:38.030Z,97718.03
2023-02-14T03:40:30.757Z,97711.91
2023-02-14T03:43:04.370Z,97708.97
2023-02-14T03:45:40.556Z,97735.69
2023-02-14T03:48:11.815Z,97732.06
2023-02-14T03:50:42.667Z,97708.00
2023-02-14T03:53:13.943Z,97687.00
2023-02-14T03:55:49.324Z,97706.25
2023-02-14T03:58:30.315Z,97721.25
2023-02-14T04:01:06.586Z,97710.94
2023-02-14T04:03:39.438Z,97722.75
2023-02-14T04:06:06.740Z,97702.06
2023-02-14T04:08:33.594Z,97722.41
2023-02-14T04:11:02.904Z,97697.66
2023-02-14T04:13:29.922Z,97710.31
2023-02-14T04:15:56.952Z,97699.47
2023-02-14T04:18:24.146Z,97707.41
2023-02-14T04:20:51.144Z,97719.28
2023-02-14T04:23:17.986Z,97714.84
2023-02-14T04:25:44.878Z,97697.44
2023-02-14T04:28:12.691Z,97703.41
2023-02-14T04:30:39.832Z,97706.75
2023-02-14T04:33:07.156Z,97680.81
2023-02-14T04:35:35.776Z,97682.69
2023-02-14T04:38:04.438Z,97717.19
2023-02-14T04:40:31.411Z,97689.03
2023-02-14T04:42:58.366Z,97680.88
2023-02-14T04:45:25.215Z,97715.72
2023-02-14T04:47:52.078Z,97700.50
2023-02-14T04:50:19.173Z,97685.69
2023-02-14T04:52:46.089Z,97696.47
2023-02-14T04:55:13.470Z,97699.78
2023-02-14T04:57:40.428Z,97715.78
2023-02-14T05:00:07.835Z,97735.06
2023-02-14T05:02:35.489Z,97705.31
2023-02-14T05:05:03.195Z,97701.22
2023-02-14T05:07:30.135Z,97693.09
2023-02-14T05:09:57.030Z,97700.84
2023-02-14T05:12:23.991Z,97719.38
2023-02-14T05:14:51.008Z,97716.81
2023-02-14T05:17:17.939Z,97683.75
2023-02-14T05:19:45.388Z,97709.44
2023-02-14T05:22:12.491Z,97703.84
2023-02-14T05:24:39.357Z,97702.00
2023-02-14T05:27:06.303Z,97701.97
2023-02-14T05:29:33.400Z,97718.38
2023-02-14T05:32:00.438Z,97709.13
2023-02-14T05:34:27.605Z,97718.03
2023-02-14T05:36:54.460Z,97718.00
2023-02-14T05:39:21.409Z,97712.84
2023-02-14T05:41:48.318Z,97707.69
2023-02-14T05:44:15.173Z,97697.28
2023-02-14T05:46:42.060Z,97709.13
2023-02-14T05:49:10.584Z,97701.72
2023-02-14T05:51:37.527Z,97706.19
2023-02-14T05:54:04.555Z,97719.56
2023-02-14T05:56:31.468Z,97716.56
2023-02-14T05:58:58.371Z,97713.22
2023-02-14T06:01:25.245Z,97722.16
2023-02-14T06:03:52.144Z,97702.47
2023-02-14T06:06:19.056Z,97712.13
2023-02-14T06:08:46.025Z,97726.25
2023-02-14T06:11:12.964Z,97724.00
2023-02-14T06:13:39.839Z,97699.47
2023-02-14T06:16:06.866Z,97727.31
2023-02-14T06:18:33.833Z,97717.63
2023-02-14T06:21:01.060Z,97723.97
2023-02-14T06:23:29.519Z,97731.44
2023-02-14T06:25:56.552Z,97721.41
2023-02-14T06:28:23.498Z,97705.38
2023-02-14T06:30:50.572Z,97711.38
2023-02-14T06:33:17.522Z,97719.91
2023-02-14T06:35:44.391Z,97709.13
2023-02-14T06:38:11.272Z,97722.53
2023-02-14T06:40:39.573Z,97707.69
2023-02-14T06:43:06.468Z,97711.03
2023-02-14T06:45:33.415Z,97728.84
2023-02-14T06:48:00.358Z,97695.75
2023-02-14T06:50:27.467Z,97737.41
2023-02-14T06:52:54.398Z,97718.81
2023-02-14T06:55:21.322Z,97729.91
2023-02-14T06:57:48.304Z,97720.16
2023-02-14T07:00:15.457Z,97699.09
2023-02-14T07:02:42.494Z,97722.78
2023-02-14T07:05:09.441Z,97741.81
2023-02-14T07:07:36.380Z,97726.22
2023-02-14T07:10:03.400Z,97738.47
2023-02-14T07:12:30.317Z,97725.13
2023-02-14T07:14:57.201Z,97810.59
2023-02-14T07:17:24.121Z,97730.72
2023-02-14T07:19:51.009Z,97744.81
2023-02-14T07:22:17.933Z,97754.13
2023-02-14T07:24:44.851Z,97742.91
2023-02-14T07:27:11.766Z,97767.09
2023-02-14T07:29:38.718Z,97736.59
2023-02-14T07:32:05.748Z,97752.22
2023-02-14T07:34:32.822Z,97752.56
2023-02-14T07:37:00.747Z,97762.56
2023-02-14T07:39:28.203Z,97757.59
2023-02-14T07:41:55.114Z,97769.78
2023-02-14T07:44:22.928Z,97754.28
2023-02-14T07:46:50.039Z,97766.25
2023-02-14T07:49:17.058Z,97754.38
2023-02-14T07:51:43.975Z,97755.09
2023-02-14T07:54:10.889Z,97791.53
2023-02-14T07:56:37.808Z,97746.47
2023-02-14T07:59:04.686Z,97760.00
2023-02-14T08:01:31.829Z,97763.56
2023-02-14T08:03:58.744Z,97768.34
2023-02-14T08:06:25.637Z,97773.50
2023-02-14T08:08:52.591Z,97788.91
2023-02-14T08:11:19.558Z,97793.97
2023-02-14T08:13:46.420Z,97789.13
2023-02-14T08:16:13.378Z,97789.88
2023-02-14T08:18:42.108Z,97771.94
2023-02-14T08:21:11.034Z,97773.44
2023-02-14T08:23:38.676Z,97780.19
2023-02-14T08:26:05.931Z,97782.16
2023-02-14T08:28:33.358Z,97803.31
2023-02-14T08:31:01.667Z,97771.84
2023-02-14T08:33:29.161Z,97797.88
2023-02-14T08:35:56.023Z,97792.56
2023-02-14T08:38:24.256Z,97807.53
2023-02-14T08:40:51.188Z,97790.66
2023-02-14T08:43:18.127Z,97829.38
2023-02-14T08:45:45.305Z,97811.06
2023-02-14T08:48:13.191Z,97807.88
2023-02-14T08:50:40.524Z,97805.28
2023-02-14T08:53:12.554Z,97813.03
2023-02-14T08:55:40.440Z,97817.47
2023-02-14T08:58:08.204Z,97821.88
2023-02-14T09:00:35.617Z,97814.69
2023-02-14T09:03:02.689Z,97822.84
2023-02-14T09:05:29.955Z,97857.78
2023-02-14T09:07:56.924Z,97839.97
2023-02-14T09:10:24.715Z,97824.00
2023-02-14T09:12:52.512Z,97828.06
2023-02-14T09:15:19.905Z,97837.00
2023-02-14T09:17:47.264Z,97842.94
2023-02-14T09:20:15.468Z,97850.03
2023-02-14T09:22:42.714Z,97831.78
2023-02-14T09:25:09.886Z,97844.75
2023-02-14T09:27:37.115Z,97849.59
2023-02-14T09:30:05.961Z,97835.13
2023-02-14T09:32:33.248Z,97846.66
2023-02-14T09:35:00.338Z,97855.19
2023-02-14T09:37:27.696Z,97852.19
2023-02-14T09:39:54.818Z,97860.72
2023-02-14T09:43:01.703Z,97861.50
2023-02-14T09:45:30.879Z,97861.91
2023-02-14T09:48:28.260Z,97838.13
2023-02-14T09:51:03.861Z,97871.22
2023-02-14T09:53:40.859Z,97863.00
2023-02-14T09:56:50.644Z,97868.81
2023-02-14T09:59:37.766Z,97879.28
2023-02-14T10:02:30.753Z,97872.63
2023-02-14T10:05:09.690Z,97845.78
2023-02-14T10:07:57.932Z,97886.44
2023-02-14T10:10:41.277Z,97871.22
2023-02-14T10:13:16.948Z,97895.75
2023-02-14T10:15:59.598Z,97865.59
2023-02-14T10:18:40.871Z,97898.72
2023-02-14T10:21:11.653Z,97889.38
2023-02-14T10:23:47.298Z,97876.28
2023-02-14T10:26:35.254Z,97895.75
2023-02-14T10:29:06.430Z,97894.56
2023-02-14T10:31:57.825Z,97918.81
2023-02-14T10:34:41.976Z,97912.03
2023-02-14T10:37:40.414Z,97898.25
2023-02-14T10:40:10.572Z,97914.34
2023-02-14T10:42:49.562Z,97905.03
2023-02-14T10:45:37.858Z,97911.38
2023-02-14T10:48:39.098Z,97927.66
2023-02-14T10:51:21.595Z,97900.97
2023-02-14T10:54:17.786Z,97948.09
2023-02-14T10:57:00.516Z,97931.31
2023-02-14T10:59:55.423Z,97923.16
2023-02-14T11:02:32.624Z,97927.94
2023-02-14T11:05:02.499Z,97934.81
2023-02-14T11:07:29.465Z,97932.72
2023-02-14T11:09:57.410Z,97931.16
2023-02-14T11:12:37.710Z,97933.75
2023-02-14T11:15:24.615Z,97924.50
2023-02-14T11:18:08.214Z,97938.50
2023-02-14T11:20:35.231Z,97943.72
2023-02-14T11:23:02.144Z,97949.81
2023-02-14T11:25:31.452Z,97920.03
2023-02-14T11:28:04.653Z,97949.69
2023-02-14T11:30:43.860Z,97952.22
2023-02-14T11:33:42.879Z,97960.41
2023-02-14T11:36:15.635Z,97952.56
2023-02-14T11:38:45.409Z,97946.34
2023-02-14T11:41:15.278Z,97947.03
2023-02-14T11:43:44.819Z,97970.66
2023-02-14T11:46:20.671Z,97986.88
2023-02-14T11:49:01.014Z,97962.09
2023-02-14T11:51:35.970Z,97967.03
2023-02-14T11:54:05.565Z,97976.78
2023-02-14T11:57:11.142Z,97973.09
2023-02-14T11:59:45.709Z,97974.25
2023-02-14T12:02:27.851Z,97982.38
2023-02-14T12:05:20.390Z,97954.88
2023-02-14T12:07:52.819Z,97974.31
2023-02-14T12:10:22.640Z,97967.53
2023-02-14T12:12:58.633Z,97984.44
2023-02-14T12:15:30.523Z,97976.94
2023-02-14T12:18:18.438Z,98005.00
2023-02-14T12:21:08.705Z,97995.41
2023-02-14T12:23:59.386Z,98000.56
2023-02-14T12:26:32.016Z,97988.41
2023-02-14T12:29:20.037Z,97998.69
2023-02-14T12:31:49.440Z,98011.31
2023-02-14T12:34:18.974Z,98009.50
2023-02-14T12:37:27.323Z,98010.44
2023-02-14T12:40:21.790Z,98015.47
2023-02-14T12:43:00.847Z,98033.81
2023-02-14T12:46:16.016Z,98019.41
2023-02-14T12:48:55.005Z,98030.38
2023-02-14T12:51:32.983Z,98046.28
2023-02-14T12:54:11.850Z,98017.91
2023-02-14T12:56:49.222Z,98050.69
2023-02-14T12:59:30.078Z,98049.84
2023-02-14T13:01:57.023Z,98055.84
2023-02-14T13:05:00.755Z,98054.41
2023-02-14T13:07:57.152Z,98058.47
2023-02-14T13:10:39.394Z,98069.22
2023-02-14T13:13:31.344Z,98055.34
2023-02-14T13:16:15.781Z,98075.31
2023-02-14T13:19:02.961Z,98082.25
2023-02-14T13:21:35.703Z,98089.13
2023-02-14T13:24:38.348Z,98099.63
2023-02-14T13:27:12.853Z,98089.19
2023-02-14T13:29:48.402Z,98080.81
2023-02-14T13:32:20.081Z,98114.88
2023-02-14T13:34:49.295Z,98112.53
2023-02-14T13:37:22.768Z,98076.75
2023-02-14T13:40:03.454Z,98109.38
2023-02-14T13:42:48.812Z,98110.59
2023-02-14T13:45:30.809Z,98118.44
2023-02-14T13:48:18.637Z,98110.63
2023-02-14T13:51:04.081Z,98123.03
2023-02-14T13:53:33.138Z,98143.44
2023-02-14T13:56:00.896Z,98133.66
2023-02-14T13:58:28.485Z,98118.13
2023-02-14T14:00:56.369Z,98133.97
2023-02-14T14:03:29.195Z,98127.78
2023-02-14T14:06:11.755Z,98147.88
2023-02-14T14:08:45.018Z,98141.53
2023-02-14T14:11:24.008Z,98139.63
2023-02-14T14:13:50.895Z,98164.78
2023-02-14T14:16:24.245Z,98151.09
2023-02-14T14:19:01.822Z,98151.53
2023-02-14T14:21:32.416Z,98173.94
2023-02-14T14:24:21.343Z,98179.25
2023-02-14T14:27:02.020Z,98157.00
2023-02-14T14:29:31.270Z,98190.84
2023-02-14T14:31:58.713Z,98187.84
2023-02-14T14:34:28.783Z,98203.19
2023-02-14T14:37:03.973Z,98192.41
2023-02-14T14:39:34.051Z,98199.59
2023-02-14T14:42:13.467Z,98209.94
2023-02-14T14:44:54.033Z,98198.69
2023-02-14T14:47:27.123Z,98218.75
2023-02-14T14:50:16.665Z,98208.13
2023-02-14T14:52:48.349Z,98211.94
2023-02-14T14:55:26.628Z,98201.50
2023-02-14T14:57:57.468Z,98236.63
2023-02-14T15:00:36.054Z,98223.22
2023-02-14T15:03:12.214Z,98235.50
2023-02-14T15:05:40.697Z,98239.06
2023-02-14T15:08:14.745Z,98243.59
2023-02-14T15:10:44.093Z,98256.47
2023-02-14T15:13:14.180Z,98263.16
2023-02-14T15:15:42.110Z,98250.09
2023-02-14T15:18:13.322Z,98267.78
2023-02-14T15:20:42.142Z,98259.84
2023-02-14T15:23:21.070Z,98266.59
2023-02-14T15:25:49.269Z,98258.06
2023-02-14T15:28:35.653Z,98257.78
2023-02-14T15:31:07.699Z,98279.78
2023-02-14T15:33:36.006Z,98273.88
2023-02-14T15:36:08.051Z,98285.13
2023-02-14T15:38:41.899Z,98270.25
2023-02-14T15:41:10.240Z,98282.44
2023-02-14T15:43:37.475Z,98272.22
2023-02-14T15:46:40.106Z,98294.78
2023-02-14T15:49:11.924Z,98310.78
2023-02-14T15:51:39.687Z,98284.81
2023-02-14T15:54:19.782Z,98305.66
2023-02-14T15:56:50.119Z,98296.78
2023-02-14T15:59:21.016Z,98332.69
2023-02-14T16:02:00.726Z,98327.31
2023-02-14T16:04:32.682Z,98316.81
2023-02-14T16:07:28.045Z,98325.97
2023-02-14T16:10:13.817Z,98338.09
2023-02-14T16:12:41.614Z,98291.22
2023-02-14T16:15:24.756Z,98361.88
2023-02-14T16:17:51.845Z,98325.53
2023-02-14T16:20:39.695Z,98335.84
2023-02-14T16:23:29.914Z,98339.41
2023-02-14T16:25:56.860Z,98330.16
2023-02-14T16:28:24.071Z,98354.88
2023-02-14T16:30:57.129Z,98355.97
2023-02-14T16:33:30.109Z,98340.38
2023-02-14T16:36:04.815Z,98358.00
2023-02-14T16:38:35.425Z,98371.13
2023-02-14T16:41:03.261Z,98369.31
2023-02-14T16:43:30.206Z,98388.88
2023-02-14T16:45:57.166Z,98387.53
2023-02-14T16:48:24.128Z,98401.66
2023-02-14T16:50:51.221Z,98394.78
2023-02-14T16:53:27.358Z,98403.47
2023-02-14T16:55:57.280Z,98377.66
2023-02-14T16:58:29.742Z,98382.47
2023-02-14T17:00:56.815Z,98391.69
2023-02-14T17:03:23.785Z,98413.22
2023-02-14T17:05:51.323Z,98415.25
2023-02-14T17:08:18.838Z,98404.84
2023-02-14T17:10:48.029Z,98423.44
2023-02-14T17:13:22.075Z,98400.38
2023-02-14T17:15:50.303Z,98414.75
2023-02-14T17:18:19.546Z,98421.25
2023-02-14T17:20:46.679Z,98433.88
2023-02-14T17:23:13.860Z,98400.91
2023-02-14T17:25:40.990Z,98444.88
2023-02-14T17:28:07.961Z,98437.53
2023-02-14T17:30:35.684Z,98446.13
2023-02-14T17:33:02.837Z,98435.59
2023-02-14T17:35:29.849Z,98437.59
2023-02-14T17:37:57.345Z,98454.13
2023-02-14T17:40:24.339Z,98439.84
2023-02-14T17:42:51.244Z,98464.50
2023-02-14T17:45:18.259Z,98459.16
2023-02-14T17:47:45.231Z,98459.41
2023-02-14T17:50:12.733Z,98484.16
2023-02-14T17:52:39.927Z,98467.97
2023-02-14T17:55:08.155Z,98471.75
2023-02-14T17:57:36.487Z,98478.25
2023-02-14T18:00:05.283Z,98495.41
2023-02-14T18:02:41.094Z,98486.44
2023-02-14T18:05:09.796Z,98495.34
2023-02-14T18:07:37.555Z,98480.78
2023-02-14T18:10:05.812Z,98489.78
2023-02-14T18:12:33.887Z,98502.94
2023-02-14T18:15:04.494Z,98500.81
2023-02-14T18:17:32.000Z,98519.44
2023-02-14T18:19:59.867Z,98478.72
2023-02-14T18:22:27.004Z,98470.09
2023-02-14T18:24:54.065Z,98505.56
2023-02-14T18:27:22.175Z,98493.34
2023-02-14T18:29:49.533Z,98514.16
2023-02-14T18:32:17.468Z,98496.81
2023-02-14T18:34:44.594Z,98526.53
2023-02-14T18:37:16.880Z,98502.31
2023-02-14T18:39:45.760Z,98513.31
2023-02-14T18:42:12.833Z,98500.91
2023-02-14T18:44:40.221Z,98503.94
2023-02-14T18:47:08.610Z,98512.94
2023-02-14T18:49:35.848Z,98546.41
2023-02-14T18:52:04.451Z,98516.72
2023-02-14T18:54:31.671Z,98513.31
2023-02-14T18:57:02.168Z,98523.75
2023-02-14T18:59:29.344Z,98536.03
2023-02-14T19:01:56.900Z,98520.94
2023-02-14T19:04:23.951Z,98547.13
2023-02-14T19:06:51.043Z,98541.13
2023-02-14T19:09:18.096Z,98534.25
2023-02-14T19:11:52.689Z,98529.13
2023-02-14T19:14:19.749Z,98548.81
2023-02-14T19:16:47.031Z,98574.53
2023-02-14T19:19:14.055Z,98541.25
2023-02-14T19:21:40.968Z,98571.22
2023-02-14T19:24:08.208Z,98560.13
2023-02-14T19:26:38.255Z,98576.44
2023-02-14T19:29:08.509Z,98561.94
2023-02-14T19:31:37.705Z,98568.44
2023-02-14T19:34:07.220Z,98591.47
2023-02-14T19:36:35.590Z,98584.34
2023-02-14T19:39:02.827Z,98580.13
2023-02-14T19:41:32.696Z,98589.06
2023-02-14T19:44:00.247Z,98595.84
2023-02-14T19:46:28.555Z,98599.72
2023-02-14T19:48:56.665Z,98587.66
2023-02-14T19:51:26.715Z,98581.56
2023-02-14T19:53:54.951Z,98593.22
2023-02-14T19:56:24.275Z,98594.44
2023-02-14T19:58:52.323Z,98595.34
2023-02-14T20:01:30.671Z,98589.75
2023-02-14T20:03:57.963Z,98574.66
2023-02-14T20:06:25.908Z,98596.72
2023-02-14T20:08:53.777Z,98595.97
2023-02-14T20:11:34.598Z,98594.91
2023-02-14T20:14:02.405Z,98593.38
2023-02-14T20:16:31.640Z,98602.03
2023-02-14T20:19:02.205Z,98584.66
2023-02-14T20:21:29.395Z,98601.59
2023-02-14T20:24:01.294Z,98625.34
2023-02-14T20:26:29.546Z,98589.66
2023-02-14T20:28:59.509Z,98607.66
2023-02-14T20:31:26.853Z,98615.69
2023-02-14T20:33:55.344Z,98611.13
2023-02-14T20:36:22.577Z,98614.91
2023-02-14T20:39:00.511Z,98617.06
2023-02-14T20:41:28.768Z,98621.28
2023-02-14T20:43:56.265Z,98614.91
2023-02-14T20:46:23.348Z,98630.06
2023-02-14T20:48:50.341Z,98619.78
2023-02-14T20:51:21.307Z,98619.16
2023-02-14T20:53:48.630Z,98625.06
2023-02-14T20:56:16.406Z,98640.16
2023-02-14T20:58:43.547Z,98637.28
2023-02-14T21:01:24.705Z,98637.31
2023-02-14T21:03:53.472Z,98647.44
2023-02-14T21:06:40.605Z,98617.50
2023-02-14T21:09:26.337Z,98647.91
2023-02-14T21:11:53.289Z,98653.03
2023-02-14T21:14:20.190Z,98637.91
2023-02-14T21:16:47.175Z,98662.44
2023-02-14T21:19:14.367Z,98687.06
2023-02-14T21:21:41.415Z,98674.94
2023-02-14T21:24:11.163Z,98670.41
2023-02-14T21:26:39.039Z,98666.75
2023-02-14T21:29:06.636Z,98682.56
2023-02-14T21:31:34.699Z,98673.97
2023-02-14T21:34:02.711Z,98665.31
2023-02-14T21:36:32.030Z,98689.72
2023-02-14T21:39:00.009Z,98677.44
2023-02-14T21:41:29.396Z,98689.97
2023-02-14T21:43:59.428Z,98682.13
2023-02-14T21:46:29.432Z,98700.78
2023-02-14T21:49:00.929Z,98710.97
2023-02-14T21:51:28.461Z,98694.88
2023-02-14T21:53:56.334Z,98717.59
2023-02-14T21:56:23.883Z,98691.44
2023-02-14T21:58:52.566Z,98723.84
2023-02-14T22:01:23.214Z,98719.00
2023-02-14T22:03:50.571Z,98710.03
2023-02-14T22:06:18.080Z,98719.53
2023-02-14T22:08:45.098Z,98727.94
2023-02-14T22:11:15.632Z,98725.25
2023-02-14T22:13:43.613Z,98751.59
2023-02-14T22:16:13.728Z,98746.72
2023-02-14T22:18:41.592Z,98725.31
2023-02-14T22:21:13.683Z,98727.13
2023-02-14T22:23:40.851Z,98745.25
2023-02-14T22:26:29.315Z,98737.03
2023-02-14T22:28:58.414Z,98759.44
2023-02-14T22:31:27.549Z,98748.94
2023-02-14T22:33:55.004Z,98764.63
2023-02-14T22:36:21.978Z,98758.38
2023-02-14T22:38:49.108Z,98754.81
2023-02-14T22:41:19.106Z,98771.28
2023-02-14T22:43:46.662Z,98754.13
2023-02-14T22:46:24.848Z,98756.53
2023-02-14T22:48:53.017Z,98783.16
2023-02-14T22:51:24.643Z,98760.19
2023-02-14T22:53:55.007Z,98763.44
2023-02-14T22:56:28.056Z,98788.25
2023-02-14T22:58:56.620Z,98782.22
2023-02-14T23:01:24.409Z,98758.38
2023-02-14T23:03:56.964Z,98800.72
2023-02-14T23:06:26.469Z,98790.81
2023-02-14T23:08:54.587Z,98770.63
2023-02-14T23:11:27.933Z,98825.84
2023-02-14T23:13:55.718Z,98816.94
2023-02-14T23:16:23.614Z,98832.03
2023-02-14T23:18:50.653Z,98817.41
2023-02-14T23:21:17.772Z,98830.84
2023-02-14T23:23:44.750Z,98819.19
2023-02-14T23:26:11.640Z,98830.16
2023-02-14T23:28:38.660Z,98839.38
2023-02-14T23:31:05.757Z,98817.41
2023-02-14T23:33:32.763Z,98794.78
2023-02-14T23:36:03.719Z,98844.50
2023-02-14T23:38:30.810Z,98854.72
2023-02-14T23:40:57.691Z,98866.75
2023-02-14T23:43:24.598Z,98840.00
2023-02-14T23:45:51.448Z,98859.16
2023-02-14T23:48:18.425Z,98857.00
2023-02-14T23:50:45.273Z,98872.16
2023-02-14T23:53:12.326Z,98878.66
2023-02-14T23:55:39.312Z,98861.06
2023-02-14T23:58:06.234Z,98852.13
